createdAt,value
2023-01-20T00:01:46.389Z,7.30
2023-01-20T00:04:13.917Z,7.54
2023-01-20T00:06:41.083Z,7.33
2023-01-20T00:09:08.286Z,7.66
2023-01-20T00:11:35.755Z,7.96
2023-01-20T00:14:02.974Z,6.84
2023-01-20T00:16:31.965Z,7.38
2023-01-20T00:18:59.547Z,7.41
2023-01-20T00:21:26.743Z,7.67
2023-01-20T00:23:53.889Z,6.81
2023-01-20T00:26:22.213Z,7.05
2023-01-20T00:28:49.845Z,6.98
2023-01-20T00:31:27.296Z,6.80
2023-01-20T00:33:55.551Z,6.37
2023-01-20T00:36:23.181Z,6.47
2023-01-20T00:38:50.378Z,7.17
2023-01-20T00:41:18.090Z,6.97
2023-01-20T00:43:45.271Z,6.81
2023-01-20T00:46:12.582Z,7.44
2023-01-20T00:48:40.025Z,7.60
2023-01-20T00:51:07.671Z,8.20
2023-01-20T00:53:35.059Z,7.93
2023-01-20T00:56:02.586Z,8.36
2023-01-20T00:58:29.891Z,8.06
2023-01-20T01:00:58.761Z,8.23
2023-01-20T01:03:28.057Z,8.16
2023-01-20T01:05:56.931Z,8.28
2023-01-20T01:08:24.072Z,8.75
2023-01-20T01:10:55.192Z,8.74
2023-01-20T01:13:22.389Z,8.45
2023-01-20T01:15:49.888Z,8.60
2023-01-20T01:18:17.525Z,8.75
2023-01-20T01:20:45.084Z,8.65
2023-01-20T01:23:12.503Z,8.07
2023-01-20T01:25:39.978Z,8.35
2023-01-20T01:28:07.114Z,8.23
2023-01-20T01:30:34.386Z,8.60
2023-01-20T01:33:01.857Z,8.46
2023-01-20T01:35:29.025Z,8.37
2023-01-20T01:37:56.188Z,8.44
2023-01-20T01:40:23.647Z,8.44
2023-01-20T01:42:50.815Z,8.51
2023-01-20T01:45:19.188Z,8.34
2023-01-20T01:47:48.478Z,8.48
2023-01-20T01:50:18.088Z,8.51
2023-01-20T01:52:45.576Z,8.69
2023-01-20T01:55:13.911Z,8.58
2023-01-20T01:57:41.313Z,8.42
2023-01-20T02:00:08.854Z,8.13
2023-01-20T02:02:41.519Z,8.11
2023-01-20T02:05:09.227Z,8.14
2023-01-20T02:07:36.437Z,7.60
2023-01-20T02:10:03.721Z,7.96
2023-01-20T02:12:32.016Z,7.86
2023-01-20T02:14:59.361Z,7.99
2023-01-20T02:17:33.879Z,8.13
2023-01-20T02:20:30.696Z,8.00
2023-01-20T02:22:57.817Z,8.17
2023-01-20T02:25:25.265Z,7.50
2023-01-20T02:27:58.509Z,8.29
2023-01-20T02:30:25.980Z,8.35
2023-01-20T02:32:53.196Z,8.15
2023-01-20T02:35:22.523Z,8.16
2023-01-20T02:37:56.151Z,8.34
2023-01-20T02:40:26.966Z,8.36
2023-01-20T02:43:03.730Z,7.75
2023-01-20T02:45:48.312Z,8.13
2023-01-20T02:48:18.629Z,8.23
2023-01-20T02:50:52.430Z,7.99
2023-01-20T02:53:19.957Z,8.19
2023-01-20T02:55:47.449Z,7.95
2023-01-20T02:58:19.785Z,8.00
2023-01-20T03:00:52.368Z,8.11
2023-01-20T03:03:24.010Z,8.01
2023-01-20T03:05:53.194Z,8.36
2023-01-20T03:08:20.409Z,8.03
2023-01-20T03:10:47.980Z,7.60
2023-01-20T03:13:32.900Z,7.85
2023-01-20T03:16:07.281Z,7.97
2023-01-20T03:18:35.008Z,7.86
2023-01-20T03:21:03.338Z,8.48
2023-01-20T03:23:31.529Z,8.45
2023-01-20T03:25:58.971Z,8.18
2023-01-20T03:28:26.319Z,8.33
2023-01-20T03:30:53.608Z,8.56
2023-01-20T03:33:21.153Z,8.74
2023-01-20T03:35:48.342Z,8.88
2023-01-20T03:38:15.515Z,8.86
2023-01-20T03:40:47.036Z,8.96
2023-01-20T03:43:20.191Z,8.94
2023-01-20T03:45:53.567Z,8.69
2023-01-20T03:48:30.244Z,8.80
2023-01-20T03:50:59.140Z,8.83
2023-01-20T03:53:26.299Z,8.78
2023-01-20T03:55:56.265Z,8.84
2023-01-20T03:58:30.738Z,8.80
2023-01-20T04:00:58.134Z,8.40
2023-01-20T04:03:27.279Z,8.19
2023-01-20T04:05:54.756Z,8.53
2023-01-20T04:08:22.330Z,8.62
2023-01-20T04:10:50.193Z,8.52
2023-01-20T04:13:17.378Z,8.78
2023-01-20T04:15:44.872Z,8.85
2023-01-20T04:18:13.348Z,8.72
2023-01-20T04:20:40.573Z,8.86
2023-01-20T04:23:08.266Z,8.73
2023-01-20T04:25:36.153Z,8.88
2023-01-20T04:28:03.362Z,8.81
2023-01-20T04:30:30.504Z,8.86
2023-01-20T04:32:57.956Z,8.28
2023-01-20T04:35:25.178Z,8.61
2023-01-20T04:37:52.364Z,8.63
2023-01-20T04:40:19.813Z,8.66
2023-01-20T04:42:46.994Z,8.73
2023-01-20T04:45:14.997Z,8.78
2023-01-20T04:47:42.967Z,8.72
2023-01-20T04:50:10.893Z,8.93
2023-01-20T04:52:38.017Z,8.57
2023-01-20T04:55:05.591Z,9.03
2023-01-20T04:57:32.749Z,8.93
2023-01-20T04:59:59.932Z,8.85
2023-01-20T05:02:27.405Z,8.79
2023-01-20T05:04:54.639Z,8.24
2023-01-20T05:07:21.847Z,8.35
2023-01-20T05:09:49.270Z,8.52
2023-01-20T05:12:16.464Z,8.36
2023-01-20T05:14:43.614Z,8.38
2023-01-20T05:17:11.064Z,8.09
2023-01-20T05:19:38.271Z,7.81
2023-01-20T05:22:05.449Z,7.55
2023-01-20T05:24:32.884Z,7.44
2023-01-20T05:27:00.558Z,7.47
2023-01-20T05:29:28.168Z,7.37
2023-01-20T05:31:55.659Z,7.61
2023-01-20T05:34:22.895Z,7.69
2023-01-20T05:36:53.669Z,8.25
2023-01-20T05:39:21.254Z,7.97
2023-01-20T05:41:49.320Z,8.40
2023-01-20T05:44:16.515Z,8.51
2023-01-20T05:46:44.032Z,8.36
2023-01-20T05:49:12.360Z,8.24
2023-01-20T05:51:39.551Z,8.28
2023-01-20T05:54:07.054Z,8.32
2023-01-20T05:56:34.263Z,8.30
2023-01-20T05:59:01.452Z,8.28
2023-01-20T06:01:28.982Z,8.47
2023-01-20T06:03:56.476Z,8.78
2023-01-20T06:06:23.678Z,8.79
2023-01-20T06:08:51.938Z,8.70
2023-01-20T06:11:19.640Z,8.75
2023-01-20T06:13:48.195Z,9.04
2023-01-20T06:16:16.554Z,9.29
2023-01-20T06:18:44.177Z,9.08
2023-01-20T06:21:11.416Z,9.28
2023-01-20T06:23:38.553Z,9.28
2023-01-20T06:26:06.776Z,9.06
2023-01-20T06:28:34.099Z,9.35
2023-01-20T06:31:14.487Z,9.27
2023-01-20T06:33:42.196Z,9.12
2023-01-20T06:36:10.994Z,9.13
2023-01-20T06:38:38.430Z,9.30
2023-01-20T06:41:07.304Z,9.32
2023-01-20T06:43:35.441Z,9.27
2023-01-20T06:46:03.611Z,9.21
2023-01-20T06:48:31.051Z,9.35
2023-01-20T06:51:02.259Z,9.23
2023-01-20T06:53:29.608Z,9.15
2023-01-20T06:55:57.513Z,8.95
2023-01-20T06:58:25.433Z,9.16
2023-01-20T07:00:52.992Z,9.32
2023-01-20T07:03:20.528Z,9.31
2023-01-20T07:05:59.430Z,9.28
2023-01-20T07:08:27.009Z,9.02
2023-01-20T07:10:54.438Z,9.26
2023-01-20T07:13:21.625Z,8.82
2023-01-20T07:15:49.027Z,8.82
2023-01-20T07:18:16.251Z,9.21
2023-01-20T07:20:43.833Z,9.26
2023-01-20T07:23:11.334Z,9.53
2023-01-20T07:25:39.545Z,9.36
2023-01-20T07:28:06.734Z,9.50
2023-01-20T07:30:34.202Z,9.62
2023-01-20T07:33:01.519Z,9.63
2023-01-20T07:35:28.751Z,9.68
2023-01-20T07:37:56.281Z,9.44
2023-01-20T07:40:23.510Z,9.72
2023-01-20T07:42:52.143Z,9.56
2023-01-20T07:45:20.313Z,9.83
2023-01-20T07:47:47.556Z,9.53
2023-01-20T07:50:14.998Z,9.45
2023-01-20T07:52:43.199Z,9.32
2023-01-20T07:55:10.415Z,9.21
2023-01-20T07:57:37.608Z,9.31
2023-01-20T08:00:05.622Z,9.49
2023-01-20T08:02:40.190Z,9.36
2023-01-20T08:05:07.871Z,8.97
2023-01-20T08:07:35.136Z,9.59
2023-01-20T08:10:02.381Z,9.55
2023-01-20T08:12:30.047Z,9.75
2023-01-20T08:14:57.209Z,9.67
2023-01-20T08:17:24.448Z,9.45
2023-01-20T08:19:51.874Z,9.82
2023-01-20T08:22:19.148Z,9.73
2023-01-20T08:24:46.318Z,9.86
2023-01-20T08:27:13.811Z,9.88
2023-01-20T08:29:41.025Z,9.76
2023-01-20T08:32:08.273Z,9.79
2023-01-20T08:34:35.838Z,9.79
2023-01-20T08:37:02.994Z,9.92
2023-01-20T08:39:30.251Z,9.84
2023-01-20T08:41:57.762Z,9.86
2023-01-20T08:44:25.013Z,9.57
2023-01-20T08:46:54.771Z,9.89
2023-01-20T08:49:23.669Z,9.83
2023-01-20T08:51:50.916Z,9.94
2023-01-20T08:54:18.199Z,9.84
2023-01-20T08:56:45.686Z,9.92
2023-01-20T08:59:12.895Z,9.79
2023-01-20T09:01:40.133Z,9.47
2023-01-20T09:04:07.954Z,9.42
2023-01-20T09:06:53.910Z,9.68
2023-01-20T09:09:22.045Z,9.71
2023-01-20T09:11:52.158Z,9.63
2023-01-20T09:14:23.257Z,9.47
2023-01-20T09:16:50.925Z,9.48
2023-01-20T09:19:18.080Z,9.59
2023-01-20T09:21:45.527Z,9.62
2023-01-20T09:24:13.139Z,9.69
2023-01-20T09:26:40.411Z,9.78
2023-01-20T09:29:11.523Z,9.49
2023-01-20T09:31:40.179Z,9.63
2023-01-20T09:34:07.637Z,9.62
2023-01-20T09:36:34.846Z,9.51
2023-01-20T09:39:20.733Z,9.57
2023-01-20T09:42:07.343Z,9.69
2023-01-20T09:44:44.608Z,9.90
2023-01-20T09:47:23.832Z,9.88
2023-01-20T09:50:28.617Z,9.71
2023-01-20T09:53:16.364Z,9.74
2023-01-20T09:55:50.018Z,9.86
2023-01-20T09:58:29.542Z,10.10
2023-01-20T10:01:03.087Z,10.14
2023-01-20T10:03:37.214Z,10.00
2023-01-20T10:06:06.900Z,9.95
2023-01-20T10:08:36.308Z,10.33
2023-01-20T10:11:05.266Z,10.24
2023-01-20T10:13:34.145Z,10.10
2023-01-20T10:16:03.027Z,10.21
2023-01-20T10:18:35.317Z,10.38
2023-01-20T10:21:08.913Z,10.14
2023-01-20T10:23:42.937Z,10.03
2023-01-20T10:26:13.142Z,10.11
2023-01-20T10:28:55.904Z,10.24
2023-01-20T10:31:26.670Z,10.08
2023-01-20T10:33:55.217Z,10.02
2023-01-20T10:36:26.267Z,10.09
2023-01-20T10:38:54.996Z,9.57
2023-01-20T10:41:24.229Z,9.89
2023-01-20T10:43:51.375Z,9.44
2023-01-20T10:46:30.949Z,9.49
2023-01-20T10:49:14.414Z,9.30
2023-01-20T10:52:00.022Z,9.21
2023-01-20T10:54:37.804Z,8.82
2023-01-20T10:57:05.810Z,8.44
2023-01-20T10:59:43.425Z,8.61
2023-01-20T11:02:30.305Z,8.96
2023-01-20T11:04:58.975Z,9.16
2023-01-20T11:07:26.574Z,8.59
2023-01-20T11:09:53.773Z,8.50
2023-01-20T11:12:25.778Z,8.82
2023-01-20T11:14:54.067Z,8.49
2023-01-20T11:17:21.291Z,7.84
2023-01-20T11:19:55.161Z,8.43
2023-01-20T11:22:26.347Z,8.55
2023-01-20T11:24:54.216Z,8.26
2023-01-20T11:27:22.360Z,8.93
2023-01-20T11:29:50.409Z,9.10
2023-01-20T11:32:31.486Z,8.81
2023-01-20T11:34:59.251Z,9.20
2023-01-20T11:37:27.360Z,8.67
2023-01-20T11:40:00.219Z,9.39
2023-01-20T11:42:28.800Z,9.58
2023-01-20T11:45:19.350Z,9.25
2023-01-20T11:47:59.090Z,9.26
2023-01-20T11:50:36.773Z,9.25
2023-01-20T11:53:22.844Z,9.79
2023-01-20T11:55:54.579Z,9.33
2023-01-20T11:58:25.967Z,9.67
2023-01-20T12:00:59.557Z,10.00
2023-01-20T12:03:41.406Z,9.71
2023-01-20T12:06:17.655Z,9.92
2023-01-20T12:08:48.368Z,9.68
2023-01-20T12:11:20.292Z,8.95
2023-01-20T12:14:20.131Z,9.90
2023-01-20T12:16:56.174Z,10.00
2023-01-20T12:19:27.597Z,9.16
2023-01-20T12:21:54.736Z,9.39
2023-01-20T12:24:52.754Z,9.35
2023-01-20T12:27:21.229Z,9.82
2023-01-20T12:29:48.403Z,9.48
2023-01-20T12:32:15.670Z,9.71
2023-01-20T12:34:43.134Z,9.46
2023-01-20T12:37:17.106Z,9.78
2023-01-20T12:39:47.321Z,9.94
2023-01-20T12:42:33.345Z,9.26
2023-01-20T12:45:21.297Z,9.04
2023-01-20T12:47:52.160Z,9.00
2023-01-20T12:50:19.590Z,9.28
2023-01-20T12:52:52.964Z,8.81
2023-01-20T12:55:39.275Z,8.61
2023-01-20T12:58:12.654Z,8.92
2023-01-20T13:00:42.896Z,8.13
2023-01-20T13:03:28.869Z,8.56
2023-01-20T13:06:01.169Z,8.19
2023-01-20T13:08:37.710Z,8.40
2023-01-20T13:11:05.116Z,8.71
2023-01-20T13:13:55.944Z,8.10
2023-01-20T13:16:29.540Z,8.38
2023-01-20T13:19:03.593Z,8.46
2023-01-20T13:21:31.676Z,7.98
2023-01-20T13:23:59.756Z,8.20
2023-01-20T13:26:27.705Z,8.33
2023-01-20T13:28:55.753Z,8.43
2023-01-20T13:31:38.491Z,7.83
2023-01-20T13:34:21.478Z,8.04
2023-01-20T13:37:04.030Z,7.90
2023-01-20T13:39:33.224Z,7.11
2023-01-20T13:42:00.502Z,7.23
2023-01-20T13:44:38.134Z,7.80
2023-01-20T13:47:09.229Z,7.13
2023-01-20T13:49:52.362Z,8.20
2023-01-20T13:52:38.723Z,7.29
2023-01-20T13:55:18.156Z,7.80
2023-01-20T13:57:45.609Z,7.90
2023-01-20T14:00:13.431Z,7.73
2023-01-20T14:02:40.897Z,7.26
2023-01-20T14:05:34.864Z,7.40
2023-01-20T14:08:02.368Z,7.04
2023-01-20T14:10:29.815Z,7.24
2023-01-20T14:12:57.083Z,7.46
2023-01-20T14:15:26.689Z,7.75
2023-01-20T14:17:54.888Z,7.77
2023-01-20T14:20:23.672Z,7.18
2023-01-20T14:22:51.246Z,7.08
2023-01-20T14:25:25.898Z,6.49
2023-01-20T14:27:53.435Z,6.71
2023-01-20T14:30:24.544Z,6.69
2023-01-20T14:32:52.087Z,6.54
2023-01-20T14:35:24.680Z,7.35
2023-01-20T14:37:52.021Z,6.92
2023-01-20T14:40:31.076Z,7.04
2023-01-20T14:42:59.011Z,7.19
2023-01-20T14:45:27.302Z,7.56
2023-01-20T14:47:54.707Z,6.93
2023-01-20T14:50:21.970Z,7.55
2023-01-20T14:52:49.610Z,7.65
2023-01-20T14:55:30.278Z,7.53
2023-01-20T14:57:58.152Z,7.73
2023-01-20T15:00:32.697Z,6.68
2023-01-20T15:03:18.816Z,7.39
2023-01-20T15:06:03.479Z,7.19
2023-01-20T15:08:34.302Z,6.84
2023-01-20T15:11:10.535Z,6.97
2023-01-20T15:13:38.325Z,6.08
2023-01-20T15:16:06.135Z,6.32
2023-01-20T15:18:33.586Z,6.40
2023-01-20T15:21:16.891Z,6.78
2023-01-20T15:23:45.865Z,6.10
2023-01-20T15:26:21.700Z,6.66
2023-01-20T15:28:49.013Z,6.51
2023-01-20T15:31:16.954Z,6.72
2023-01-20T15:33:44.162Z,6.40
2023-01-20T15:36:22.115Z,6.82
2023-01-20T15:38:49.879Z,6.30
2023-01-20T15:41:17.132Z,5.86
2023-01-20T15:43:49.375Z,6.48
2023-01-20T15:46:17.194Z,6.58
2023-01-20T15:48:44.813Z,6.37
2023-01-20T15:51:12.387Z,6.25
2023-01-20T15:53:40.088Z,6.72
2023-01-20T15:56:10.284Z,6.86
2023-01-20T15:58:37.634Z,6.17
2023-01-20T16:01:05.101Z,6.48
2023-01-20T16:03:35.410Z,6.46
2023-01-20T16:06:02.636Z,5.63
2023-01-20T16:08:33.734Z,6.00
2023-01-20T16:11:01.320Z,5.70
2023-01-20T16:13:28.533Z,6.20
2023-01-20T16:15:56.249Z,5.96
2023-01-20T16:18:23.793Z,6.89
2023-01-20T16:20:51.143Z,6.62
2023-01-20T16:23:18.438Z,6.26
2023-01-20T16:25:46.086Z,6.67
2023-01-20T16:28:21.458Z,6.43
2023-01-20T16:30:49.096Z,5.66
2023-01-20T16:33:26.263Z,5.87
2023-01-20T16:35:54.699Z,5.92
2023-01-20T16:38:23.999Z,5.95
2023-01-20T16:40:52.275Z,5.92
2023-01-20T16:43:20.458Z,5.57
2023-01-20T16:45:52.562Z,5.75
2023-01-20T16:48:20.767Z,6.03
2023-01-20T16:50:48.408Z,5.97
2023-01-20T16:53:15.839Z,6.22
2023-01-20T16:55:43.849Z,6.10
2023-01-20T16:58:11.824Z,6.02
2023-01-20T17:00:39.185Z,5.88
2023-01-20T17:03:06.831Z,6.16
2023-01-20T17:05:34.273Z,5.89
2023-01-20T17:08:02.430Z,5.91
2023-01-20T17:10:30.197Z,5.32
2023-01-20T17:12:57.449Z,5.37
2023-01-20T17:15:24.819Z,5.73
2023-01-20T17:17:54.732Z,5.57
2023-01-20T17:20:22.293Z,5.45
2023-01-20T17:22:49.547Z,5.12
2023-01-20T17:25:17.913Z,5.32
2023-01-20T17:27:45.324Z,5.98
2023-01-20T17:30:12.659Z,6.54
2023-01-20T17:32:40.233Z,6.59
2023-01-20T17:35:07.473Z,6.53
2023-01-20T17:37:34.855Z,6.73
2023-01-20T17:40:02.490Z,6.99
2023-01-20T17:42:29.753Z,7.24
2023-01-20T17:45:01.311Z,7.15
2023-01-20T17:47:31.363Z,6.90
2023-01-20T17:49:58.885Z,7.36
2023-01-20T17:52:26.215Z,6.97
2023-01-20T17:54:53.757Z,6.96
2023-01-20T17:57:21.179Z,7.61
2023-01-20T17:59:48.486Z,6.86
2023-01-20T18:02:18.601Z,6.99
2023-01-20T18:04:46.279Z,7.62
2023-01-20T18:07:13.523Z,6.72
2023-01-20T18:09:42.956Z,7.35
2023-01-20T18:12:10.681Z,7.09
2023-01-20T18:14:38.530Z,6.85
2023-01-20T18:17:05.883Z,7.38
2023-01-20T18:19:33.590Z,6.94
2023-01-20T18:22:06.919Z,7.36
2023-01-20T18:24:34.486Z,8.22
2023-01-20T18:27:01.695Z,7.78
2023-01-20T18:29:30.207Z,7.86
2023-01-20T18:31:58.265Z,7.43
2023-01-20T18:34:25.658Z,6.44
2023-01-20T18:36:53.385Z,7.26
2023-01-20T18:39:21.928Z,7.86
2023-01-20T18:41:49.718Z,7.12
2023-01-20T18:44:17.068Z,7.78
2023-01-20T18:46:44.858Z,7.20
2023-01-20T18:49:13.032Z,7.46
2023-01-20T18:51:42.270Z,7.81
2023-01-20T18:54:14.658Z,7.98
2023-01-20T18:56:42.366Z,8.21
2023-01-20T18:59:10.828Z,7.40
2023-01-20T19:01:39.809Z,7.65
2023-01-20T19:04:08.183Z,7.37
2023-01-20T19:06:36.979Z,7.73
2023-01-20T19:09:04.467Z,7.83
2023-01-20T19:11:32.727Z,7.91
2023-01-20T19:14:00.359Z,8.00
2023-01-20T19:16:28.853Z,7.84
2023-01-20T19:18:56.791Z,7.69
2023-01-20T19:21:24.894Z,8.30
2023-01-20T19:23:53.011Z,8.32
2023-01-20T19:26:20.717Z,8.24
2023-01-20T19:28:49.523Z,8.27
2023-01-20T19:31:17.950Z,8.21
2023-01-20T19:33:46.038Z,8.28
2023-01-20T19:36:14.386Z,7.79
2023-01-20T19:38:41.890Z,8.25
2023-01-20T19:41:10.484Z,7.82
2023-01-20T19:43:38.325Z,8.35
2023-01-20T19:46:15.835Z,8.37
2023-01-20T19:48:43.558Z,8.03
2023-01-20T19:51:15.402Z,7.43
2023-01-20T19:53:43.674Z,8.08
2023-01-20T19:56:15.362Z,7.93
2023-01-20T19:58:43.284Z,7.76
2023-01-20T20:01:14.320Z,7.92
2023-01-20T20:03:42.203Z,7.55
2023-01-20T20:06:23.150Z,8.10
2023-01-20T20:08:51.244Z,7.82
2023-01-20T20:11:18.607Z,7.59
2023-01-20T20:13:46.026Z,6.92
2023-01-20T20:16:14.153Z,6.78
2023-01-20T20:18:42.609Z,7.26
2023-01-20T20:21:10.139Z,7.34
2023-01-20T20:23:37.916Z,7.75
2023-01-20T20:26:05.295Z,7.50
2023-01-20T20:28:32.471Z,7.34
2023-01-20T20:31:04.163Z,7.67
2023-01-20T20:33:31.634Z,7.31
2023-01-20T20:35:58.975Z,6.86
2023-01-20T20:38:26.616Z,6.83
2023-01-20T20:40:57.945Z,6.82
2023-01-20T20:43:26.294Z,6.10
2023-01-20T20:45:54.074Z,5.94
2023-01-20T20:48:21.467Z,5.73
2023-01-20T20:50:48.908Z,5.36
2023-01-20T20:53:17.641Z,5.21
2023-01-20T20:55:45.048Z,5.25
2023-01-20T20:58:13.118Z,5.00
2023-01-20T21:00:40.712Z,5.29
2023-01-20T21:03:08.454Z,5.73
2023-01-20T21:05:35.817Z,4.88
2023-01-20T21:08:05.990Z,5.42
2023-01-20T21:10:33.345Z,4.76
2023-01-20T21:13:00.681Z,5.38
2023-01-20T21:15:30.556Z,4.10
2023-01-20T21:17:58.350Z,4.70
2023-01-20T21:20:25.764Z,4.93
2023-01-20T21:22:53.511Z,4.65
2023-01-20T21:25:24.077Z,4.60
2023-01-20T21:27:51.488Z,5.04
2023-01-20T21:30:19.383Z,5.45
2023-01-20T21:32:47.089Z,5.13
2023-01-20T21:35:14.296Z,5.04
2023-01-20T21:37:41.866Z,5.36
2023-01-20T21:40:09.707Z,5.02
2023-01-20T21:42:36.899Z,5.09
2023-01-20T21:45:04.571Z,5.44
2023-01-20T21:47:31.901Z,6.27
2023-01-20T21:50:18.152Z,6.09
2023-01-20T21:52:45.800Z,6.62
2023-01-20T21:55:19.073Z,6.12
2023-01-20T21:57:46.961Z,6.62
2023-01-20T22:00:15.517Z,6.38
2023-01-20T22:02:44.845Z,6.66
2023-01-20T22:05:12.751Z,6.73
2023-01-20T22:07:39.924Z,6.76
2023-01-20T22:10:07.885Z,6.62
2023-01-20T22:12:35.663Z,4.93
2023-01-20T22:15:03.523Z,6.10
2023-01-20T22:17:31.103Z,6.48
2023-01-20T22:19:58.280Z,5.52
2023-01-20T22:22:25.476Z,6.20
2023-01-20T22:24:53.516Z,6.79
2023-01-20T22:27:20.831Z,6.51
2023-01-20T22:29:47.988Z,6.46
2023-01-20T22:32:15.427Z,6.68
2023-01-20T22:34:42.673Z,6.06
2023-01-20T22:37:09.867Z,6.83
2023-01-20T22:39:37.326Z,6.87
2023-01-20T22:42:04.624Z,6.56
2023-01-20T22:44:31.812Z,6.11
2023-01-20T22:46:59.287Z,6.00
2023-01-20T22:49:26.540Z,6.15
2023-01-20T22:51:54.421Z,5.75
2023-01-20T22:54:21.881Z,5.27
2023-01-20T22:56:49.063Z,6.06
2023-01-20T22:59:16.246Z,6.11
2023-01-20T23:01:43.772Z,5.78
2023-01-20T23:04:11.042Z,6.01
2023-01-20T23:06:39.273Z,6.24
2023-01-20T23:09:07.989Z,5.77
2023-01-20T23:11:36.489Z,5.89
2023-01-20T23:14:04.002Z,6.08
2023-01-20T23:16:31.516Z,6.03
2023-01-20T23:18:58.820Z,6.24
2023-01-20T23:21:26.087Z,5.60
2023-01-20T23:23:56.285Z,6.12
2023-01-20T23:26:24.455Z,6.15
2023-01-20T23:28:53.490Z,6.40
2023-01-20T23:31:21.967Z,6.62
2023-01-20T23:33:49.448Z,6.47
2023-01-20T23:36:20.960Z,6.32
2023-01-20T23:38:48.417Z,6.10
2023-01-20T23:41:15.884Z,6.16
2023-01-20T23:43:43.133Z,6.01
2023-01-20T23:46:10.980Z,6.00
2023-01-20T23:48:38.460Z,6.52
2023-01-20T23:51:06.598Z,6.10
2023-01-20T23:53:36.332Z,6.27
2023-01-20T23:56:04.604Z,6.52
2023-01-20T23:58:31.787Z,6.52
